Time;durP1;ratioP1;P1;durP2;ratioP2;P2;SDS_P1;SDS_P2;PMS_P1;PMS_P2;Temp;Humidity;BMP_temperature;BMP_pressure;BME280_temperature;BME280_humidity;BME280_pressure;Samples;Min_cycle;Max_cycle;Signal;HPM_P1;HPM_P2
2022/02/21 00:02:17;;;;;;;0.07;0.07;;;;;;;8.95;100.00;97605.41;5030879;28;20231;-74
2022/02/21 00:04:42;;;;;;;0.77;0.20;;;;;;;9.05;100.00;97576.75;5030694;28;20180;-74
2022/02/21 00:07:08;;;;;;;0.00;0.00;;;;;;;9.11;100.00;97580.72;5030840;28;20238;-73
2022/02/21 00:09:33;;;;;;;0.67;0.20;;;;;;;9.16;100.00;97571.44;5031070;28;20191;-74
2022/02/21 00:11:58;;;;;;;0.10;0.10;;;;;;;9.28;100.00;97584.00;5030857;28;20409;-74
2022/02/21 00:14:24;;;;;;;0.00;0.00;;;;;;;9.30;100.00;97609.72;5030906;28;20696;-73
2022/02/21 00:16:49;;;;;;;0.00;0.00;;;;;;;9.29;100.00;97594.53;5030756;28;20651;-74
2022/02/21 00:19:14;;;;;;;0.10;0.10;;;;;;;9.27;100.00;97594.13;5030702;28;20179;-74
2022/02/21 00:21:40;;;;;;;0.20;0.10;;;;;;;9.23;100.00;97610.41;5031159;28;20175;-74
2022/02/21 00:24:06;;;;;;;2.90;0.10;;;;;;;9.25;100.00;97656.34;5030434;28;20178;-73
2022/02/21 00:26:31;;;;;;;0.73;0.13;;;;;;;9.29;100.00;97659.13;5030364;28;20207;-73
2022/02/21 00:28:57;;;;;;;0.10;0.10;;;;;;;9.22;100.00;97753.22;5030602;28;20186;-73
2022/02/21 00:31:22;;;;;;;1.70;0.57;;;;;;;7.63;100.00;97797.47;5030575;28;20184;-73
2022/02/21 00:33:48;;;;;;;3.33;1.37;;;;;;;4.79;100.00;97780.75;5030649;28;20179;-74
2022/02/21 00:36:13;;;;;;;0.50;0.47;;;;;;;4.76;100.00;97776.00;5030613;28;20179;-74
2022/02/21 00:38:39;;;;;;;0.20;0.20;;;;;;;4.97;100.00;97794.84;5030478;28;20176;-74
2022/02/21 00:55:23;;;;;;;0.00;0.00;;;;;;;6.18;100.00;97825.44;5141219;27;20559;-73
2022/02/21 00:57:48;;;;;;;0.13;0.03;;;;;;;6.23;100.00;97836.84;5156779;27;20572;-73
2022/02/21 01:00:14;;;;;;;0.30;0.20;;;;;;;6.19;100.00;97854.13;5163542;27;20250;-73
2022/02/21 01:02:39;;;;;;;0.63;0.10;;;;;;;6.15;100.00;97855.94;5170110;27;20198;-73
2022/02/21 01:05:06;;;;;;;0.00;0.00;;;;;;;6.17;100.00;97853.69;5170086;27;20171;-73
2022/02/21 01:07:32;;;;;;;0.00;0.00;;;;;;;6.18;100.00;97869.59;5170295;27;20202;-74
2022/02/21 01:09:57;;;;;;;0.00;0.00;;;;;;;6.17;100.00;97872.66;5169854;27;20183;-73
2022/02/21 01:12:22;;;;;;;0.00;0.00;;;;;;;6.15;100.00;97858.66;5170471;27;20171;-74
2022/02/21 01:14:48;;;;;;;0.03;0.03;;;;;;;6.13;100.00;97864.44;5170083;27;20282;-75
2022/02/21 01:17:14;;;;;;;0.00;0.00;;;;;;;6.13;100.00;97880.69;5170233;27;20531;-74
2022/02/21 01:19:39;;;;;;;0.00;0.00;;;;;;;6.16;100.00;97888.13;5170119;27;20570;-73
2022/02/21 01:22:06;;;;;;;0.73;0.20;;;;;;;6.17;100.00;97887.00;5170121;27;20346;-74
2022/02/21 01:24:32;;;;;;;0.00;0.00;;;;;;;6.13;100.00;97866.34;5170081;27;20226;-73
2022/02/21 01:26:57;;;;;;;0.10;0.10;;;;;;;6.12;100.00;97908.16;5176580;27;20167;-73
2022/02/21 01:29:23;;;;;;;0.10;0.10;;;;;;;6.16;100.00;97919.88;5174810;27;20218;-73
2022/02/21 01:31:48;;;;;;;0.00;0.00;;;;;;;6.13;100.00;97909.72;5170738;27;20554;-73
2022/02/21 01:34:14;;;;;;;0.13;0.10;;;;;;;6.09;100.00;97890.66;5169930;27;20175;-73
2022/02/21 01:36:42;;;;;;;0.03;0.03;;;;;;;6.06;100.00;97902.16;5170208;27;20172;-73
2022/02/21 01:39:08;;;;;;;1.23;0.13;;;;;;;6.12;100.00;97908.94;5170058;27;20167;-73
2022/02/21 01:41:34;;;;;;;0.10;0.10;;;;;;;6.15;100.00;97918.28;5169675;27;20635;-73
2022/02/21 01:44:08;;;;;;;0.20;0.10;;;;;;;6.09;100.00;97919.69;5169153;27;20215;-73
2022/02/21 01:46:35;;;;;;;0.40;0.23;;;;;;;6.03;100.00;97923.75;5169564;27;20173;-73
2022/02/21 01:49:00;;;;;;;0.00;0.00;;;;;;;5.97;100.00;97925.91;5169581;27;20179;-73
2022/02/21 01:51:26;;;;;;;0.00;0.00;;;;;;;5.87;100.00;97910.88;5169546;27;20171;-73
2022/02/21 01:53:55;;;;;;;0.00;0.00;;;;;;;5.73;100.00;97913.19;5169248;27;20669;-73
2022/02/21 01:56:21;;;;;;;1.20;0.13;;;;;;;5.66;100.00;97907.56;5155075;27;20168;-73
2022/02/21 01:58:46;;;;;;;1.03;0.20;;;;;;;5.67;100.00;97941.63;5155320;27;20663;-72
2022/02/21 02:01:12;;;;;;;0.27;0.27;;;;;;;5.68;100.00;97937.81;5155682;27;20183;-73
2022/02/21 02:03:38;;;;;;;3.77;0.20;;;;;;;5.62;100.00;97949.97;5155364;27;20199;-74
2022/02/21 02:06:06;;;;;;;0.47;0.47;;;;;;;5.53;100.00;97952.81;5153803;27;20176;-73
2022/02/21 02:08:32;;;;;;;0.10;0.10;;;;;;;5.51;100.00;97962.41;5155205;27;20168;-73
2022/02/21 02:10:58;;;;;;;0.10;0.10;;;;;;;5.47;100.00;97950.66;5154982;27;20264;-73
2022/02/21 02:13:23;;;;;;;0.10;0.10;;;;;;;5.48;100.00;97946.81;5155188;27;20894;-73
2022/02/21 02:15:53;;;;;;;1.40;0.40;;;;;;;5.52;100.00;97964.78;5154825;27;20533;-73
2022/02/21 02:18:19;;;;;;;0.90;0.50;;;;;;;5.60;100.00;97979.31;5154882;27;20164;-73
2022/02/21 02:20:44;;;;;;;0.37;0.37;;;;;;;5.60;100.00;97977.41;5154924;27;20697;-73
2022/02/21 02:23:09;;;;;;;0.20;0.20;;;;;;;5.69;100.00;97966.47;5154919;27;20203;-73
2022/02/21 02:25:35;;;;;;;0.30;0.27;;;;;;;5.67;100.00;97974.94;5154994;27;20172;-73
2022/02/21 02:28:00;;;;;;;0.27;0.10;;;;;;;5.66;99.95;97983.41;5154599;27;20329;-73
2022/02/21 02:30:26;;;;;;;0.40;0.20;;;;;;;5.68;98.59;97991.97;5154794;27;20638;-73
2022/02/21 02:32:51;;;;;;;1.43;0.93;;;;;;;5.64;97.84;98000.00;5154697;27;20241;-72
2022/02/21 02:35:17;;;;;;;1.07;0.70;;;;;;;5.34;98.36;97966.91;5154512;27;20756;-73
2022/02/21 02:37:42;;;;;;;0.20;0.20;;;;;;;5.17;100.00;98004.22;5154966;27;20164;-73
2022/02/21 02:40:08;;;;;;;0.20;0.20;;;;;;;5.09;100.00;97997.78;5154702;27;20172;-72
2022/02/21 02:42:33;;;;;;;1.13;1.13;;;;;;;4.99;100.00;97977.34;5154375;27;20182;-73
2022/02/21 02:44:58;;;;;;;0.90;0.30;;;;;;;5.02;100.00;97992.13;5153008;27;20202;-73
2022/02/21 02:47:24;;;;;;;0.70;0.70;;;;;;;4.98;100.00;98002.03;5154394;27;20221;-73
2022/02/21 02:49:49;;;;;;;0.47;0.40;;;;;;;4.93;99.73;98015.78;5154446;27;20175;-73
2022/02/21 02:52:14;;;;;;;0.00;0.00;;;;;;;4.80;100.00;98000.63;5154292;27;20207;-73
2022/02/21 02:54:40;;;;;;;0.00;0.00;;;;;;;4.72;100.00;98007.69;5154097;27;20195;-73
2022/02/21 02:57:06;;;;;;;0.60;0.37;;;;;;;4.61;100.00;98001.13;5152922;27;20175;-73
2022/02/21 02:59:31;;;;;;;1.53;0.40;;;;;;;4.40;100.00;97996.53;5154243;27;20179;-73
2022/02/21 03:01:56;;;;;;;1.33;0.47;;;;;;;4.29;100.00;97989.16;5152772;27;20195;-73
2022/02/21 03:04:22;;;;;;;0.00;0.00;;;;;;;4.17;100.00;97990.66;5154301;27;20670;-73
2022/02/21 03:06:47;;;;;;;0.67;0.13;;;;;;;4.14;100.00;97990.53;5153114;27;20634;-72
2022/02/21 03:09:13;;;;;;;0.20;0.20;;;;;;;4.18;100.00;97980.63;5154085;27;20535;-73
2022/02/21 03:11:38;;;;;;;1.80;0.70;;;;;;;4.26;100.00;98001.41;5153481;27;20199;-73
2022/02/21 03:14:03;;;;;;;5.67;0.77;;;;;;;4.42;100.00;98012.41;5152350;27;20172;-73
2022/02/21 03:16:29;;;;;;;1.80;0.20;;;;;;;4.44;100.00;98029.09;5153668;27;20184;-73
2022/02/21 03:18:54;;;;;;;0.50;0.30;;;;;;;4.51;99.95;98025.88;5153831;27;20164;-72
2022/02/21 03:21:21;;;;;;;3.10;0.87;;;;;;;4.41;100.00;98065.69;5153971;27;20179;-73
2022/02/21 03:23:47;;;;;;;2.67;0.53;;;;;;;4.09;99.76;98083.38;5153441;27;20407;-73
2022/02/21 03:26:12;;;;;;;3.43;1.47;;;;;;;3.65;100.00;98089.31;5153512;27;20179;-73
2022/02/21 03:28:38;;;;;;;0.93;0.60;;;;;;;3.45;100.00;98094.28;5153529;27;20514;-73
2022/02/21 03:31:03;;;;;;;0.47;0.10;;;;;;;3.38;100.00;98075.13;5153464;27;20225;-73
2022/02/21 03:33:28;;;;;;;1.67;0.47;;;;;;;3.36;100.00;98085.44;5153502;27;20632;-73
2022/02/21 03:35:54;;;;;;;3.13;1.27;;;;;;;3.43;100.00;98149.72;5153217;27;20168;-74
2022/02/21 03:38:20;;;;;;;3.60;0.73;;;;;;;3.40;100.00;98150.34;5153491;27;20176;-74
2022/02/21 03:40:47;;;;;;;0.50;0.43;;;;;;;3.37;100.00;98087.03;5153342;27;20183;-73
2022/02/21 03:43:12;;;;;;;1.47;0.83;;;;;;;3.34;100.00;98087.69;5153197;27;20232;-73
2022/02/21 03:45:38;;;;;;;3.30;1.27;;;;;;;3.33;100.00;98093.38;5152951;27;20204;-73
2022/02/21 03:48:03;;;;;;;0.53;0.53;;;;;;;3.32;100.00;98089.88;5153116;27;20665;-73
2022/02/21 03:50:29;;;;;;;3.20;1.13;;;;;;;3.36;100.00;98098.16;5153258;27;20179;-73
2022/02/21 03:52:54;;;;;;;4.03;0.90;;;;;;;3.35;100.00;98083.88;5153047;27;20179;-73
2022/02/21 03:55:20;;;;;;;5.43;0.67;;;;;;;3.40;100.00;98099.09;5152713;27;20223;-73
2022/02/21 03:57:46;;;;;;;0.53;0.53;;;;;;;3.39;100.00;98079.41;5152855;27;20163;-73
2022/02/21 04:00:14;;;;;;;0.93;0.93;;;;;;;3.48;100.00;98092.88;5153102;27;20251;-73
2022/02/21 04:02:40;;;;;;;1.77;0.93;;;;;;;3.57;99.20;98102.50;5152841;27;20244;-73
2022/02/21 04:05:07;;;;;;;2.67;0.63;;;;;;;3.66;98.01;98107.09;5151539;27;20417;-73
2022/02/21 04:07:32;;;;;;;0.10;0.10;;;;;;;3.64;98.83;98120.13;5152875;27;20263;-73
2022/02/21 04:09:58;;;;;;;3.93;1.10;;;;;;;3.64;98.99;98114.75;5152408;27;20597;-73
2022/02/21 04:12:23;;;;;;;1.47;0.70;;;;;;;3.62;97.93;98109.66;5152870;27;20172;-73
2022/02/21 04:14:49;;;;;;;0.87;0.70;;;;;;;3.63;96.49;98146.34;5152644;27;20710;-73
2022/02/21 04:17:14;;;;;;;1.87;1.03;;;;;;;3.57;98.16;98128.72;5151267;27;20238;-73
2022/02/21 04:19:40;;;;;;;3.20;0.93;;;;;;;3.49;99.55;98113.34;5151139;27;20172;-73
2022/02/21 04:22:10;;;;;;;18.40;1.90;;;;;;;3.48;99.71;98093.66;5152691;27;20183;-73
2022/02/21 04:24:36;;;;;;;0.67;0.67;;;;;;;3.64;97.80;98106.66;5152260;27;20188;-73
2022/02/21 04:27:02;;;;;;;0.83;0.73;;;;;;;3.68;96.19;98138.06;5152817;27;20586;-72
2022/02/21 04:29:27;;;;;;;5.03;0.70;;;;;;;3.63;96.43;98138.25;5152567;27;20250;-73
2022/02/21 04:31:52;;;;;;;2.73;0.80;;;;;;;3.63;94.88;98132.84;5152565;27;20168;-73
2022/02/21 04:34:18;;;;;;;6.00;0.50;;;;;;;3.66;93.25;98158.41;5152405;27;20164;-73
2022/02/21 04:36:43;;;;;;;9.13;0.50;;;;;;;3.56;93.83;98146.03;5134248;27;20193;-73
2022/02/21 04:39:09;;;;;;;1.57;0.87;;;;;;;3.53;93.04;98155.56;5127980;27;20666;-73
2022/02/21 04:41:34;;;;;;;1.13;0.60;;;;;;;3.53;92.09;98160.97;5140118;27;20168;-74
2022/02/21 04:44:00;;;;;;;1.93;0.57;;;;;;;3.55;92.06;98166.84;5117390;27;20205;-73
2022/02/21 04:46:25;;;;;;;5.83;1.47;;;;;;;3.54;91.62;98167.94;5109772;28;20165;-73
2022/02/21 04:48:51;;;;;;;3.73;1.80;;;;;;;3.56;91.95;98195.41;5111122;28;20205;-73
2022/02/21 04:51:16;;;;;;;4.40;1.00;;;;;;;3.48;93.67;98204.34;5111213;28;20260;-73
2022/02/21 04:53:41;;;;;;;4.00;0.60;;;;;;;3.39;95.59;98186.56;5109604;28;20671;-74
2022/02/21 04:56:07;;;;;;;0.97;0.63;;;;;;;3.28;97.07;98183.38;5110803;28;20173;-74
2022/02/21 04:58:32;;;;;;;2.47;0.90;;;;;;;3.18;98.45;98202.59;5110899;28;20177;-73
2022/02/21 05:00:57;;;;;;;1.93;0.73;;;;;;;3.16;97.57;98194.81;5110960;28;20658;-73
2022/02/21 05:03:23;;;;;;;0.33;0.17;;;;;;;3.10;97.58;98190.69;5111175;28;20201;-73
2022/02/21 05:05:48;;;;;;;0.57;0.50;;;;;;;3.13;94.75;98195.47;5110844;28;20628;-73
2022/02/21 05:08:14;;;;;;;0.47;0.30;;;;;;;3.10;93.44;98206.09;5111056;28;20180;-73
2022/02/21 05:10:39;;;;;;;3.37;0.70;;;;;;;3.05;93.26;98198.16;5110988;28;20173;-73
2022/02/21 05:13:04;;;;;;;0.70;0.43;;;;;;;3.05;92.96;98215.16;5110941;28;20564;-73
2022/02/21 05:15:30;;;;;;;1.77;0.73;;;;;;;3.03;93.89;98211.94;5110694;28;20583;-73
2022/02/21 05:17:55;;;;;;;7.37;1.23;;;;;;;2.94;95.59;98224.66;5110870;28;20197;-73
2022/02/21 05:20:21;;;;;;;1.27;0.60;;;;;;;2.85;97.47;98221.94;5110722;28;20234;-73
2022/02/21 05:38:06;;;;;;;0.57;0.57;;;;;;;3.15;92.53;98231.00;5141563;27;20909;-74
2022/02/21 05:40:32;;;;;;;2.00;1.40;;;;;;;3.18;91.39;98253.84;5152631;27;20187;-74
2022/02/21 05:42:57;;;;;;;0.80;0.80;;;;;;;3.20;91.27;98244.34;5156070;27;20225;-74
2022/02/21 05:45:23;;;;;;;4.50;0.40;;;;;;;3.22;90.69;98274.50;5152271;27;20664;-75
2022/02/21 05:47:48;;;;;;;0.80;0.20;;;;;;;3.06;92.60;98273.38;5149651;27;20619;-74
2022/02/21 05:50:14;;;;;;;0.93;0.10;;;;;;;2.63;96.08;98267.88;5149058;27;20237;-78
2022/02/21 05:52:39;;;;;;;0.20;0.10;;;;;;;2.35;99.01;98272.69;5149423;27;20574;-73
2022/02/21 05:55:05;;;;;;;3.10;0.10;;;;;;;2.15;100.00;98268.63;5149185;27;20256;-76
2022/02/21 05:57:30;;;;;;;1.70;0.27;;;;;;;2.08;100.00;98252.13;5148804;27;20175;-75
2022/02/21 06:00:01;;;;;;;0.17;0.17;;;;;;;2.30;100.00;98279.00;5149068;27;20203;-73
2022/02/21 06:02:27;;;;;;;3.40;1.40;;;;;;;2.57;100.00;98277.19;5149061;27;20164;-73
2022/02/21 06:04:54;;;;;;;1.50;0.67;;;;;;;2.82;97.73;98291.88;5147932;27;20259;-73
2022/02/21 06:07:19;;;;;;;1.73;0.43;;;;;;;2.92;94.75;98302.38;5148594;27;20191;-73
2022/02/21 06:09:47;;;;;;;4.13;0.50;;;;;;;2.94;93.09;98297.47;5147669;27;20168;-73
2022/02/21 06:12:13;;;;;;;1.03;0.43;;;;;;;2.89;92.42;98306.50;5148714;27;20255;-74
2022/02/21 06:14:38;;;;;;;1.50;0.20;;;;;;;2.88;91.40;98299.50;5148909;27;20268;-74
2022/02/21 06:17:04;;;;;;;1.33;0.27;;;;;;;2.90;90.31;98326.19;5148860;27;20172;-73
2022/02/21 06:19:29;;;;;;;1.80;1.40;;;;;;;2.88;90.13;98317.56;5149079;27;20650;-75
2022/02/21 06:21:57;;;;;;;4.37;1.07;;;;;;;2.83;90.11;98310.44;5148911;27;20484;-73
2022/02/21 06:24:24;;;;;;;1.07;0.80;;;;;;;2.82;90.05;98313.44;5148993;27;20162;-74
2022/02/21 06:26:49;;;;;;;2.80;0.97;;;;;;;2.84;88.92;98332.81;5148688;27;20203;-76
2022/02/21 06:29:14;;;;;;;1.03;0.40;;;;;;;2.84;88.70;98333.59;5148966;27;20645;-76
2022/02/21 06:31:40;;;;;;;0.87;0.27;;;;;;;2.84;89.25;98327.41;5149001;27;20199;-73
2022/02/21 06:34:07;;;;;;;12.73;0.77;;;;;;;2.82;89.52;98341.22;5148869;27;20179;-75
2022/02/21 06:36:32;;;;;;;4.23;1.27;;;;;;;2.82;89.93;98345.81;5148684;27;20858;-73
2022/02/21 06:38:58;;;;;;;1.13;0.50;;;;;;;2.81;90.68;98345.00;5135200;27;20200;-74
2022/02/21 06:41:24;;;;;;;1.40;1.30;;;;;;;2.80;91.49;98350.72;5134852;27;20204;-74
2022/02/21 06:43:50;;;;;;;1.40;0.67;;;;;;;2.77;91.64;98345.97;5134931;27;20172;-74
2022/02/21 06:46:15;;;;;;;2.97;1.30;;;;;;;2.73;92.06;98323.41;5133069;27;20192;-77
2022/02/21 06:48:40;;;;;;;3.57;1.40;;;;;;;2.65;92.60;98338.44;5138229;27;20237;-73
2022/02/21 06:51:06;;;;;;;0.63;0.63;;;;;;;2.60;93.70;98322.41;5155164;27;20619;-74
2022/02/21 06:53:31;;;;;;;0.77;0.20;;;;;;;2.56;94.27;98327.63;5155083;27;20168;-74
2022/02/21 06:55:56;;;;;;;1.00;0.73;;;;;;;2.62;93.01;98325.59;5155228;27;20877;-73
2022/02/21 06:58:22;;;;;;;1.47;0.60;;;;;;;2.63;92.13;98325.28;5153563;27;20164;-74
2022/02/21 07:00:47;;;;;;;1.03;0.53;;;;;;;2.65;91.03;98336.56;5155089;27;20675;-73
2022/02/21 07:03:13;;;;;;;1.23;1.07;;;;;;;2.72;89.71;98330.69;5155093;27;20259;-74
2022/02/21 07:05:39;;;;;;;0.37;0.33;;;;;;;2.76;89.17;98328.19;5154768;27;20275;-73
2022/02/21 07:08:05;;;;;;;5.47;1.57;;;;;;;2.77;88.98;98340.56;5154680;27;20164;-74
2022/02/21 07:10:30;;;;;;;5.00;1.47;;;;;;;2.83;88.53;98337.41;5153370;27;20178;-73
2022/02/21 07:12:56;;;;;;;0.10;0.00;;;;;;;2.78;88.72;98356.44;5154863;27;20175;-73
2022/02/21 07:15:21;;;;;;;0.80;0.70;;;;;;;2.79;89.19;98360.72;5154803;27;20171;-74
2022/02/21 07:17:47;;;;;;;3.00;1.40;;;;;;;2.81;89.37;98368.47;5154530;27;20168;-74
2022/02/21 07:20:14;;;;;;;0.87;0.70;;;;;;;2.86;89.04;98379.91;5154817;27;20299;-77
2022/02/21 07:22:41;;;;;;;2.23;0.70;;;;;;;2.88;88.79;98385.00;5154713;27;20517;-73
2022/02/21 07:25:12;;;;;;;0.90;0.80;;;;;;;2.84;89.27;98387.53;5154637;27;20790;-74
2022/02/21 07:27:55;;;;;;;0.70;0.70;;;;;;;2.86;89.05;98398.00;5153792;27;20238;-74
2022/02/21 07:30:26;;;;;;;3.10;1.00;;;;;;;2.89;88.40;98389.28;5154579;27;20191;-74
2022/02/21 07:32:52;;;;;;;0.40;0.40;;;;;;;2.89;88.48;98387.41;5135729;27;20185;-74
2022/02/21 07:35:18;;;;;;;5.20;1.10;;;;;;;2.91;88.32;98382.50;5131860;27;20175;-74
2022/02/21 07:37:43;;;;;;;1.67;0.57;;;;;;;2.89;88.77;98400.91;5141043;27;20224;-74
2022/02/21 07:40:10;;;;;;;3.70;0.50;;;;;;;2.94;88.36;98405.34;5124337;27;20285;-74
2022/02/21 07:42:35;;;;;;;2.07;0.63;;;;;;;2.93;89.10;98382.19;5113061;28;20201;-71
2022/02/21 07:45:01;;;;;;;2.33;1.20;;;;;;;2.94;89.00;98381.06;5112944;28;20208;-71
2022/02/21 07:47:27;;;;;;;3.10;1.43;;;;;;;2.96;89.11;98395.03;5112720;28;20208;-71
2022/02/21 07:49:52;;;;;;;2.33;0.77;;;;;;;2.99;88.58;98386.31;5111926;28;20204;-71
2022/02/21 07:52:18;;;;;;;1.93;0.80;;;;;;;2.99;87.79;98384.41;5112874;28;20256;-72
2022/02/21 07:54:45;;;;;;;0.43;0.27;;;;;;;3.07;87.89;98380.16;5112749;28;20234;-70
2022/02/21 07:57:10;;;;;;;0.83;0.40;;;;;;;3.15;86.86;98379.38;5112562;28;20169;-71
2022/02/21 07:59:35;;;;;;;7.40;1.93;;;;;;;3.21;86.04;98402.44;5112682;28;20172;-71
2022/02/21 08:02:02;;;;;;;5.00;1.77;;;;;;;3.26;85.84;98410.38;5112904;28;20198;-71
2022/02/21 08:04:27;;;;;;;3.80;0.90;;;;;;;3.28;85.35;98412.75;5111267;28;20223;-71
2022/02/21 08:06:53;;;;;;;3.37;1.63;;;;;;;3.29;85.16;98395.44;5112280;28;20209;-74
2022/02/21 08:09:20;;;;;;;2.90;1.20;;;;;;;3.29;84.82;98382.75;5111018;28;20192;-72
2022/02/21 08:11:47;;;;;;;8.97;1.17;;;;;;;3.32;85.29;98405.59;5112290;28;20686;-72
2022/02/21 08:14:12;;;;;;;2.60;0.63;;;;;;;3.33;85.03;98399.13;5112427;28;20218;-72
2022/02/21 08:16:38;;;;;;;3.47;2.57;;;;;;;3.34;85.81;98406.13;5110778;28;20192;-72
2022/02/21 08:19:03;;;;;;;5.60;2.00;;;;;;;3.38;85.34;98390.09;5112561;28;20203;-72
2022/02/21 08:21:29;;;;;;;13.13;2.53;;;;;;;3.41;85.47;98386.75;5112183;28;20211;-73
2022/02/21 08:23:54;;;;;;;9.47;1.53;;;;;;;3.42;84.96;98399.94;5112103;28;20321;-72
2022/02/21 08:26:19;;;;;;;1.33;1.23;;;;;;;3.43;84.63;98395.31;5112092;28;20605;-72
2022/02/21 08:28:45;;;;;;;1.23;0.43;;;;;;;3.43;84.75;98404.22;5111549;27;20683;-72
2022/02/21 08:31:10;;;;;;;2.03;0.70;;;;;;;3.47;84.61;98396.28;5111017;28;20631;-72
2022/02/21 08:33:35;;;;;;;8.00;2.27;;;;;;;3.49;84.03;98410.28;5111916;28;20536;-72
2022/02/21 08:36:01;;;;;;;6.57;1.67;;;;;;;3.48;83.67;98396.00;5111909;28;20208;-72
2022/02/21 08:38:26;;;;;;;2.10;1.20;;;;;;;3.48;84.52;98406.78;5110453;28;20177;-74
2022/02/21 08:40:51;;;;;;;5.53;1.73;;;;;;;3.52;83.35;98402.34;5112091;28;20181;-72
2022/02/21 08:43:17;;;;;;;0.30;0.30;;;;;;;3.58;84.38;98411.88;5111870;28;20184;-73
2022/02/21 08:45:42;;;;;;;4.00;1.47;;;;;;;3.63;83.32;98389.34;5111662;28;20326;-73
2022/02/21 08:48:08;;;;;;;7.33;1.27;;;;;;;3.67;83.72;98413.78;5111646;28;20543;-73
2022/02/21 08:50:33;;;;;;;9.20;2.27;;;;;;;3.71;82.65;98420.16;5111533;28;20173;-74
2022/02/21 08:52:59;;;;;;;1.70;0.77;;;;;;;3.73;83.05;98404.41;5110051;28;20334;-74
2022/02/21 08:55:24;;;;;;;4.97;1.37;;;;;;;3.69;82.75;98398.06;5111741;28;20173;-73
2022/02/21 08:57:50;;;;;;;6.97;1.80;;;;;;;3.73;81.83;98396.31;5111003;28;20177;-74
2022/02/21 09:00:17;;;;;;;2.03;1.53;;;;;;;3.79;82.15;98417.47;5110928;28;20169;-73
2022/02/21 09:02:44;;;;;;;1.50;1.10;;;;;;;3.79;82.40;98419.38;5111156;28;20173;-73
2022/02/21 09:05:12;;;;;;;7.07;2.47;;;;;;;3.83;82.20;98406.81;5109828;28;20173;-74
2022/02/21 09:07:39;;;;;;;1.40;1.03;;;;;;;3.87;82.85;98389.66;5110708;28;20589;-73
2022/02/21 09:10:06;;;;;;;3.53;1.70;;;;;;;3.89;81.77;98409.03;5111115;28;20185;-74
2022/02/21 09:12:32;;;;;;;0.60;0.60;;;;;;;3.90;81.71;98415.22;5111127;28;20185;-73
2022/02/21 09:15:01;;;;;;;9.67;2.27;;;;;;;3.87;81.54;98421.28;5111043;28;20177;-79
2022/02/21 09:17:27;;;;;;;0.80;0.80;;;;;;;3.90;81.64;98417.94;5110631;28;20207;-76
2022/02/21 09:19:53;;;;;;;2.33;1.07;;;;;;;3.90;81.93;98409.81;5111310;28;20181;-76
2022/02/21 09:22:20;;;;;;;0.60;0.60;;;;;;;3.92;82.70;98409.53;5110874;28;20647;-76
2022/02/21 09:24:45;;;;;;;5.73;2.00;;;;;;;3.93;81.59;98411.13;5110883;28;20281;-76
2022/02/21 09:27:10;;;;;;;2.33;1.90;;;;;;;3.96;81.72;98424.00;5108979;28;20673;-76
2022/02/21 09:29:36;;;;;;;4.30;1.47;;;;;;;3.95;81.91;98425.09;5111199;28;20202;-77
2022/02/21 09:32:01;;;;;;;2.43;1.80;;;;;;;3.97;81.50;98431.78;5111071;28;20175;-71
2022/02/21 09:34:27;;;;;;;10.60;2.67;;;;;;;4.00;80.85;98419.53;5111357;28;20199;-71
2022/02/21 09:36:52;;;;;;;10.20;2.07;;;;;;;4.03;80.60;98425.09;5110739;28;20635;-71
2022/02/21 09:39:17;;;;;;;1.73;0.87;;;;;;;4.07;80.71;98427.97;5109514;28;20169;-71
2022/02/21 09:41:43;;;;;;;4.83;1.80;;;;;;;4.06;80.09;98426.38;5111106;28;20177;-71
2022/02/21 09:44:09;;;;;;;2.60;0.80;;;;;;;4.09;80.85;98433.84;5110781;28;20229;-71
2022/02/21 09:46:36;;;;;;;1.40;1.40;;;;;;;4.09;80.28;98421.13;5110252;28;20319;-70
2022/02/21 09:49:01;;;;;;;2.33;1.90;;;;;;;4.10;79.36;98425.41;5110619;28;20636;-70
2022/02/21 09:51:27;;;;;;;6.33;1.00;;;;;;;4.13;79.03;98410.47;5110586;28;20187;-71
2022/02/21 09:53:53;;;;;;;2.87;1.20;;;;;;;4.17;78.98;98436.53;5110676;28;20234;-72
2022/02/21 09:56:19;;;;;;;2.83;2.10;;;;;;;4.20;78.63;98426.22;5109270;28;20173;-71
2022/02/21 09:58:44;;;;;;;2.47;1.53;;;;;;;4.22;78.18;98443.72;5110289;28;20169;-71
2022/02/21 10:01:10;;;;;;;3.80;1.83;;;;;;;4.28;78.17;98425.41;5110548;28;20663;-71
2022/02/21 10:03:43;;;;;;;2.50;1.73;;;;;;;4.28;76.92;98458.63;5110677;28;20245;-71
2022/02/21 10:06:25;;;;;;;2.63;1.23;;;;;;;4.31;76.41;98424.75;5110392;28;20189;-71
2022/02/21 10:09:03;;;;;;;3.60;1.90;;;;;;;4.32;76.87;98437.16;5110170;28;20226;-71
2022/02/21 10:11:31;;;;;;;18.57;1.57;;;;;;;4.31;75.74;98436.38;5110715;28;20222;-71
2022/02/21 10:14:00;;;;;;;7.90;1.97;;;;;;;4.30;74.71;98402.34;5113725;27;20268;-71
2022/02/21 10:16:38;;;;;;;5.27;0.97;;;;;;;4.27;75.63;98405.69;5133126;27;20176;-70
2022/02/21 10:19:14;;;;;;;8.57;1.60;;;;;;;4.25;75.24;98407.13;5134688;27;20191;-71
2022/02/21 10:22:01;;;;;;;2.33;1.30;;;;;;;4.20;75.83;98420.81;5128738;27;20161;-71
2022/02/21 10:24:47;;;;;;;2.17;1.00;;;;;;;4.23;75.77;98403.97;5134708;27;20585;-70
2022/02/21 10:27:16;;;;;;;29.57;1.80;;;;;;;4.28;75.82;98412.69;5133970;27;20208;-70
2022/02/21 10:29:45;;;;;;;2.90;1.10;;;;;;;4.37;74.55;98423.50;5134748;27;20198;-70
2022/02/21 10:32:11;;;;;;;1.23;0.97;;;;;;;4.43;74.72;98417.59;5133262;27;20271;-72
2022/02/21 10:34:37;;;;;;;5.70;1.17;;;;;;;4.45;74.50;98414.56;5134645;27;20251;-71
2022/02/21 10:37:05;;;;;;;3.73;0.67;;;;;;;4.46;74.28;98414.25;5134093;27;20190;-71
2022/02/21 10:39:31;;;;;;;1.07;0.77;;;;;;;4.45;74.05;98415.34;5134405;27;20168;-72
2022/02/21 10:41:57;;;;;;;0.23;0.23;;;;;;;4.43;74.39;98406.78;5137558;27;20184;-71
2022/02/21 10:44:26;;;;;;;0.30;0.30;;;;;;;4.46;74.63;98398.03;5136556;27;20190;-71
2022/02/21 10:47:13;;;;;;;4.27;1.57;;;;;;;4.44;74.49;98397.56;5154896;27;20199;-71
2022/02/21 10:49:47;;;;;;;5.00;1.20;;;;;;;4.41;74.96;98400.13;5154858;27;20688;-70
2022/02/21 10:52:21;;;;;;;1.13;1.03;;;;;;;4.43;75.38;98409.47;5153461;27;20163;-70
2022/02/21 10:54:47;;;;;;;2.90;1.47;;;;;;;4.44;74.92;98397.56;5154956;27;20202;-71
2022/02/21 10:57:14;;;;;;;0.77;0.60;;;;;;;4.47;75.13;98390.69;5154439;27;20160;-71
2022/02/21 10:59:40;;;;;;;10.43;2.07;;;;;;;4.52;75.62;98393.25;5153433;27;20175;-71
2022/02/21 11:02:07;;;;;;;0.57;0.57;;;;;;;4.51;75.08;98407.91;5153339;27;20172;-71
2022/02/21 11:04:35;;;;;;;5.03;0.43;;;;;;;4.51;75.32;98388.97;5154710;27;20175;-71
2022/02/21 11:07:01;;;;;;;1.57;1.47;;;;;;;4.48;74.45;98392.28;5154634;27;20560;-71
2022/02/21 11:09:28;;;;;;;8.93;1.60;;;;;;;4.48;74.71;98389.59;5152711;27;20183;-71
2022/02/21 11:11:57;;;;;;;2.17;0.43;;;;;;;4.48;74.19;98376.06;5153213;27;20164;-71
2022/02/21 11:14:26;;;;;;;10.40;2.20;;;;;;;4.50;74.46;98387.38;5153353;27;20176;-71
2022/02/21 11:16:52;;;;;;;6.53;1.80;;;;;;;4.54;74.10;98401.84;5153032;27;20168;-71
2022/02/21 11:19:19;;;;;;;2.40;0.43;;;;;;;4.59;73.49;98369.22;5153044;27;20199;-71
2022/02/21 11:21:46;;;;;;;1.03;0.93;;;;;;;4.58;73.64;98388.47;5153102;27;20176;-71
2022/02/21 11:24:13;;;;;;;10.10;2.23;;;;;;;4.60;74.21;98389.72;5153547;27;20201;-72
2022/02/21 11:27:03;;;;;;;2.53;1.47;;;;;;;4.65;73.57;98372.53;5154024;27;20684;-71
2022/02/21 11:29:37;;;;;;;0.67;0.67;;;;;;;4.71;73.69;98368.53;5131796;27;20192;-73
2022/02/21 11:32:02;;;;;;;8.33;0.87;;;;;;;4.75;73.48;98364.06;5153045;27;20668;-74
2022/02/21 11:34:28;;;;;;;4.13;1.00;;;;;;;4.77;72.77;98361.81;5123784;27;20298;-73
2022/02/21 11:36:57;;;;;;;6.37;2.83;;;;;;;4.75;72.99;98362.16;5136041;27;20291;-72
2022/02/21 11:39:28;;;;;;;0.93;0.50;;;;;;;4.76;73.49;98341.31;5144250;27;20232;-71
2022/02/21 11:42:16;;;;;;;3.77;2.03;;;;;;;4.77;73.51;98332.06;5144850;27;20169;-71
2022/02/21 11:44:58;;;;;;;3.60;1.70;;;;;;;4.71;73.59;98345.00;5133656;27;20173;-72
2022/02/21 11:47:37;;;;;;;0.40;0.30;;;;;;;4.71;73.98;98361.22;5133331;27;20227;-71
2022/02/21 11:50:28;;;;;;;1.60;0.73;;;;;;;4.64;75.13;98352.81;5132291;27;20643;-72
2022/02/21 11:52:59;;;;;;;1.03;0.80;;;;;;;4.42;78.55;98353.03;5133391;27;20253;-72
2022/02/21 11:55:32;;;;;;;0.67;0.60;;;;;;;4.14;82.02;98344.50;5118107;27;20554;-71
2022/02/21 11:57:59;;;;;;;2.00;1.27;;;;;;;3.89;84.28;98328.00;5112872;28;20169;-72
2022/02/21 12:00:41;;;;;;;2.00;1.90;;;;;;;3.74;86.96;98349.28;5112729;28;20181;-70
2022/02/21 12:03:26;;;;;;;0.63;0.63;;;;;;;3.65;89.02;98329.63;5113199;28;20177;-72
2022/02/21 12:05:57;;;;;;;0.43;0.43;;;;;;;3.61;90.73;98326.75;5113440;28;20193;-71
2022/02/21 12:08:31;;;;;;;0.40;0.20;;;;;;;3.60;91.51;98330.56;5116428;28;20536;-71